Time;durP1;ratioP1;P1;durP2;ratioP2;P2;SDS_P1;SDS_P2;PMS_P1;PMS_P2;Temp;Humidity;BMP_temperature;BMP_pressure;BME280_temperature;BME280_humidity;BME280_pressure;Samples;Min_cycle;Max_cycle;Signal;HPM_P1;HPM_P2
2023/12/17 00:01:56;;;;;;;12.05;9.40;;;0.90;99.90;;;;;;5052471;28;20218;-58
2023/12/17 00:04:24;;;;;;;10.25;8.75;;;0.90;99.90;;;;;;5052020;28;20229;-59
2023/12/17 00:06:51;;;;;;;10.07;9.15;;;0.90;99.90;;;;;;5052082;28;20308;-58
2023/12/17 00:09:18;;;;;;;11.68;8.70;;;0.90;99.90;;;;;;5051756;28;20202;-56
2023/12/17 00:11:44;;;;;;;9.52;8.73;;;0.90;99.90;;;;;;5052124;28;20202;-58
2023/12/17 00:14:13;;;;;;;10.00;8.95;;;0.90;99.90;;;;;;5052076;28;20313;-57
2023/12/17 00:16:39;;;;;;;11.93;9.95;;;0.90;99.90;;;;;;5051989;28;20218;-58
2023/12/17 00:19:06;;;;;;;11.48;9.30;;;0.90;99.90;;;;;;5051939;28;20204;-59
2023/12/17 00:21:34;;;;;;;9.75;8.43;;;0.80;99.90;;;;;;5051825;28;20289;-56
2023/12/17 00:24:01;;;;;;;19.40;9.80;;;0.80;99.90;;;;;;5051635;28;20226;-59
2023/12/17 00:26:28;;;;;;;12.52;9.63;;;0.80;99.90;;;;;;5051912;28;20585;-58
2023/12/17 00:28:55;;;;;;;8.70;7.90;;;0.80;99.90;;;;;;5051872;28;20222;-57
2023/12/17 00:31:22;;;;;;;7.32;6.63;;;0.80;99.90;;;;;;5051888;28;20359;-51
2023/12/17 00:33:48;;;;;;;6.85;6.20;;;0.80;99.90;;;;;;5051505;28;20239;-57
2023/12/17 00:36:15;;;;;;;10.60;7.63;;;0.80;99.90;;;;;;5051125;28;20730;-58
2023/12/17 00:38:43;;;;;;;9.40;7.55;;;0.80;99.90;;;;;;5051610;28;20198;-58
2023/12/17 00:41:10;;;;;;;12.38;10.07;;;0.80;99.90;;;;;;5051515;28;20199;-57
2023/12/17 00:43:38;;;;;;;9.30;7.60;;;0.80;99.90;;;;;;5051475;28;20218;-59
2023/12/17 00:46:05;;;;;;;17.70;10.32;;;0.80;99.90;;;;;;5051435;28;20203;-57
2023/12/17 00:48:32;;;;;;;10.27;9.18;;;0.70;99.90;;;;;;5051090;28;20210;-57
2023/12/17 00:50:58;;;;;;;11.52;9.07;;;0.70;99.90;;;;;;5051345;28;20571;-56
2023/12/17 00:53:25;;;;;;;10.30;9.30;;;0.70;99.90;;;;;;5051346;28;20216;-57
2023/12/17 00:55:53;;;;;;;9.77;8.70;;;0.70;99.90;;;;;;5050846;28;20228;-56
2023/12/17 00:58:20;;;;;;;11.30;9.60;;;0.70;99.90;;;;;;5050707;28;20665;-57
2023/12/17 01:00:47;;;;;;;12.43;9.60;;;0.70;99.90;;;;;;5051167;28;20298;-56
2023/12/17 01:03:14;;;;;;;11.05;10.05;;;0.70;99.90;;;;;;5051179;28;20293;-52
2023/12/17 01:05:41;;;;;;;16.52;12.82;;;0.70;99.90;;;;;;5043521;28;20221;-56
2023/12/17 01:08:07;;;;;;;12.38;9.98;;;0.60;99.90;;;;;;5050687;28;20293;-59
2023/12/17 01:10:34;;;;;;;10.23;9.23;;;0.70;99.90;;;;;;5050934;28;20629;-56
2023/12/17 01:13:02;;;;;;;11.52;9.10;;;0.60;99.90;;;;;;5051198;28;20223;-59
2023/12/17 01:15:29;;;;;;;13.43;9.65;;;0.60;99.90;;;;;;5050811;28;20226;-55
2023/12/17 01:17:56;;;;;;;9.65;8.65;;;0.60;99.90;;;;;;5050594;28;20211;-57
2023/12/17 01:20:24;;;;;;;13.18;9.40;;;0.60;99.90;;;;;;5051058;28;20285;-57
2023/12/17 01:22:51;;;;;;;10.27;8.93;;;0.60;99.90;;;;;;5051220;28;20206;-58
2023/12/17 01:25:17;;;;;;;13.50;10.18;;;0.60;99.90;;;;;;5050682;28;20236;-57
2023/12/17 01:27:44;;;;;;;12.23;10.55;;;0.60;99.90;;;;;;5050588;28;20206;-58
2023/12/17 01:30:13;;;;;;;10.80;9.10;;;0.50;99.90;;;;;;5050758;28;20207;-57
2023/12/17 01:32:40;;;;;;;15.55;9.98;;;0.50;99.90;;;;;;5050538;28;20232;-58
2023/12/17 01:35:08;;;;;;;9.43;8.40;;;0.50;99.90;;;;;;5049926;28;20253;-55
2023/12/17 01:37:35;;;;;;;11.48;9.93;;;0.50;99.90;;;;;;5050472;28;20686;-58
2023/12/17 01:40:02;;;;;;;18.77;10.23;;;0.50;99.90;;;;;;5050502;28;20281;-53
2023/12/17 01:42:29;;;;;;;11.68;10.48;;;0.50;99.90;;;;;;5050763;28;20260;-57
2023/12/17 01:44:56;;;;;;;10.20;8.95;;;0.50;99.90;;;;;;5050351;28;20706;-57
2023/12/17 01:47:24;;;;;;;11.10;9.48;;;0.40;99.90;;;;;;5050324;28;20216;-58
2023/12/17 01:49:51;;;;;;;15.07;11.00;;;0.40;99.90;;;;;;5049749;28;20289;-58
2023/12/17 01:52:18;;;;;;;11.75;10.55;;;0.40;99.90;;;;;;5050144;28;20202;-59
2023/12/17 01:54:46;;;;;;;14.18;10.73;;;0.50;99.90;;;;;;5050304;28;20329;-58
2023/12/17 01:57:13;;;;;;;13.75;10.32;;;0.50;99.90;;;;;;5050450;28;20207;-58
2023/12/17 01:59:41;;;;;;;12.45;10.73;;;0.50;99.90;;;;;;5049959;28;20298;-57
2023/12/17 02:02:10;;;;;;;15.57;10.20;;;0.50;99.90;;;;;;5049639;28;20705;-57
2023/12/17 02:04:38;;;;;;;10.40;9.15;;;0.40;99.90;;;;;;5049302;28;20231;-56
2023/12/17 02:07:05;;;;;;;11.98;9.50;;;0.40;99.90;;;;;;5051941;28;20642;-58
2023/12/17 02:09:32;;;;;;;12.68;10.23;;;0.40;99.90;;;;;;5053438;28;20221;-54
2023/12/17 02:11:59;;;;;;;11.88;9.88;;;0.40;99.90;;;;;;5054549;28;20195;-59
2023/12/17 02:14:25;;;;;;;11.80;9.50;;;0.40;99.90;;;;;;5054024;28;20230;-56
2023/12/17 02:16:52;;;;;;;14.23;9.60;;;0.40;99.90;;;;;;5054460;28;20222;-54
2023/12/17 02:19:19;;;;;;;13.77;9.80;;;0.40;99.90;;;;;;5053680;28;20209;-54
2023/12/17 02:21:47;;;;;;;12.82;11.68;;;0.40;99.90;;;;;;5053662;28;20294;-59
2023/12/17 02:24:16;;;;;;;12.05;9.50;;;0.40;99.90;;;;;;5052970;28;20218;-54
2023/12/17 02:26:42;;;;;;;12.45;9.07;;;0.40;99.90;;;;;;5053046;28;20277;-56
2023/12/17 02:29:09;;;;;;;16.25;9.57;;;0.40;99.90;;;;;;5055158;28;20217;-59
2023/12/17 02:31:36;;;;;;;11.70;8.73;;;0.40;99.90;;;;;;5054563;28;20210;-56
2023/12/17 02:34:03;;;;;;;11.13;8.00;;;0.40;99.90;;;;;;5054692;28;20244;-58
2023/12/17 02:36:30;;;;;;;10.07;6.75;;;0.40;99.90;;;;;;5054814;28;20222;-58
2023/12/17 02:38:57;;;;;;;8.48;7.65;;;0.40;99.90;;;;;;5054305;28;20992;-55
2023/12/17 02:41:25;;;;;;;9.55;7.97;;;0.30;99.90;;;;;;5054630;28;20301;-55
2023/12/17 02:43:52;;;;;;;9.02;8.07;;;0.30;99.90;;;;;;5055052;28;20248;-58
2023/12/17 02:46:18;;;;;;;10.52;8.70;;;0.30;99.90;;;;;;5054630;28;20205;-54
2023/12/17 02:48:45;;;;;;;9.63;8.68;;;0.30;99.90;;;;;;5054492;28;20680;-54
2023/12/17 02:51:14;;;;;;;11.07;9.30;;;0.30;99.90;;;;;;5054851;28;20646;-55
2023/12/17 02:53:40;;;;;;;9.20;7.95;;;0.30;99.90;;;;;;5054545;28;20222;-56
2023/12/17 02:56:08;;;;;;;11.93;9.30;;;0.30;99.90;;;;;;5054757;28;20312;-55
2023/12/17 02:58:38;;;;;;;10.30;9.32;;;0.30;99.90;;;;;;5054283;28;20615;-57
2023/12/17 03:01:05;;;;;;;11.25;8.40;;;0.30;99.90;;;;;;5054653;28;20297;-56
2023/12/17 03:03:32;;;;;;;11.07;9.05;;;0.30;99.90;;;;;;5054426;28;20230;-55
2023/12/17 03:05:59;;;;;;;10.15;9.07;;;0.30;99.90;;;;;;5054548;28;20267;-59
2023/12/17 03:08:25;;;;;;;12.95;11.20;;;0.20;99.90;;;;;;5054066;28;20297;-57
2023/12/17 03:10:52;;;;;;;12.57;9.68;;;0.20;99.90;;;;;;5054461;28;20206;-56
2023/12/17 03:13:19;;;;;;;10.45;9.32;;;0.20;99.90;;;;;;5054426;28;20213;-58
2023/12/17 03:15:47;;;;;;;8.93;8.05;;;0.20;99.90;;;;;;5054166;28;20222;-58
2023/12/17 03:18:15;;;;;;;10.05;9.05;;;0.20;99.90;;;;;;5052575;28;20301;-57
2023/12/17 03:20:42;;;;;;;11.07;8.95;;;0.20;99.90;;;;;;5054164;28;20207;-53
2023/12/17 03:23:09;;;;;;;12.20;8.90;;;0.20;99.90;;;;;;5054096;28;20217;-56
2023/12/17 03:25:36;;;;;;;11.45;10.35;;;0.20;99.90;;;;;;5053858;28;20735;-59
2023/12/17 03:28:03;;;;;;;11.07;9.90;;;0.10;99.90;;;;;;5053974;28;20210;-56
2023/12/17 03:30:30;;;;;;;11.70;9.00;;;0.10;99.90;;;;;;5053998;28;20297;-58
2023/12/17 03:32:58;;;;;;;11.13;9.40;;;0.10;99.90;;;;;;5054037;28;20210;-55
2023/12/17 03:35:25;;;;;;;11.98;9.85;;;0.10;99.90;;;;;;5053243;28;20239;-56
2023/12/17 03:37:51;;;;;;;7.97;7.05;;;0.10;99.90;;;;;;5053800;28;20682;-56
2023/12/17 03:40:18;;;;;;;8.50;7.63;;;0.10;99.90;;;;;;5054064;28;20206;-57
2023/12/17 03:42:45;;;;;;;10.02;8.65;;;0.10;99.90;;;;;;5053933;28;20528;-57
2023/12/17 03:45:12;;;;;;;9.52;8.55;;;0.10;99.90;;;;;;5053619;28;20226;-57
2023/12/17 03:47:44;;;;;;;10.60;8.30;;;0.00;99.90;;;;;;5053511;28;20213;-58
2023/12/17 03:50:12;;;;;;;9.95;7.80;;;0.00;99.90;;;;;;5053281;28;20217;-56
2023/12/17 03:52:39;;;;;;;12.98;8.52;;;0.00;99.90;;;;;;5053579;28;20284;-58
2023/12/17 03:55:06;;;;;;;10.25;8.88;;;0.00;99.90;;;;;;5053502;28;20227;-57
2023/12/17 03:57:33;;;;;;;13.43;8.32;;;0.00;99.90;;;;;;5053481;28;20313;-57
2023/12/17 04:00:01;;;;;;;9.30;8.40;;;0.00;99.90;;;;;;5053302;28;20202;-55
2023/12/17 04:02:28;;;;;;;10.15;9.00;;;0.00;99.90;;;;;;5044258;28;20210;-58
2023/12/17 04:04:55;;;;;;;9.52;8.50;;;0.00;99.90;;;;;;5048435;28;20237;-59
2023/12/17 04:07:26;;;;;;;11.63;10.40;;;0.00;99.90;;;;;;5053178;28;20202;-58
2023/12/17 04:09:53;;;;;;;12.55;10.57;;;0.00;99.90;;;;;;5052985;28;20253;-56
2023/12/17 04:12:19;;;;;;;8.80;8.02;;;0.00;99.90;;;;;;5052812;28;20293;-57
2023/12/17 04:14:46;;;;;;;10.93;9.00;;;0.00;99.90;;;;;;5052885;28;20227;-58
2023/12/17 04:17:13;;;;;;;10.68;9.77;;;0.00;99.90;;;;;;5052678;28;20697;-58
2023/12/17 04:19:40;;;;;;;10.73;9.57;;;0.00;99.90;;;;;;5052857;28;20217;-53
2023/12/17 04:22:07;;;;;;;12.50;10.48;;;0.00;99.90;;;;;;5052986;28;20657;-57
2023/12/17 04:24:35;;;;;;;8.75;7.72;;;0.00;99.90;;;;;;5044484;28;20229;-59
2023/12/17 04:27:02;;;;;;;11.32;8.55;;;0.00;99.90;;;;;;5052586;28;20289;-57
2023/12/17 04:29:29;;;;;;;12.57;9.50;;;0.00;99.90;;;;;;5052104;28;20302;-59
2023/12/17 04:31:55;;;;;;;12.50;10.35;;;0.00;99.90;;;;;;5052872;28;20209;-57
2023/12/17 04:34:23;;;;;;;10.35;9.05;;;0.00;99.90;;;;;;5079788;22;20240;-54
2023/12/17 04:36:50;;;;;;;12.88;9.50;;;-0.10;99.90;;;;;;5073245;28;20659;-54
2023/12/17 04:39:17;;;;;;;14.13;10.55;;;0.00;99.90;;;;;;5073108;28;20793;-57
2023/12/17 04:41:45;;;;;;;15.73;9.85;;;-0.10;99.90;;;;;;5073542;28;20216;-57
2023/12/17 04:44:12;;;;;;;11.88;8.73;;;0.00;99.90;;;;;;5076072;28;20228;-54
2023/12/17 04:46:39;;;;;;;16.13;10.68;;;-0.10;99.90;;;;;;5093620;28;20291;-56
2023/12/17 04:49:06;;;;;;;12.20;9.85;;;-0.10;99.90;;;;;;5092980;28;20679;-53
2023/12/17 04:51:33;;;;;;;17.92;11.52;;;-0.10;99.90;;;;;;5093479;28;20244;-56
2023/12/17 04:53:59;;;;;;;11.10;10.00;;;-0.10;99.90;;;;;;5093132;28;20205;-56
2023/12/17 04:56:26;;;;;;;14.75;9.65;;;-0.10;99.90;;;;;;5093148;28;20225;-58
2023/12/17 04:58:55;;;;;;;13.68;10.57;;;-0.10;99.90;;;;;;5093177;28;20304;-55
2023/12/17 05:01:21;;;;;;;20.42;10.30;;;-0.10;99.90;;;;;;5093186;28;20204;-57
2023/12/17 05:03:48;;;;;;;13.75;10.65;;;-0.10;99.90;;;;;;5092898;28;20653;-58
2023/12/17 05:06:15;;;;;;;12.63;11.23;;;-0.10;99.90;;;;;;5092825;28;20216;-58
2023/12/17 05:08:42;;;;;;;16.73;12.23;;;-0.10;99.90;;;;;;5092688;28;20292;-59
2023/12/17 05:11:09;;;;;;;12.15;10.02;;;-0.10;99.90;;;;;;5092712;28;20205;-58
2023/12/17 05:13:36;;;;;;;15.35;11.20;;;-0.10;99.90;;;;;;5093326;28;20596;-58
2023/12/17 05:16:04;;;;;;;16.05;11.48;;;-0.20;99.90;;;;;;5092785;28;20315;-57
2023/12/17 05:18:31;;;;;;;14.95;11.50;;;-0.10;99.90;;;;;;5092625;28;20721;-56
2023/12/17 05:20:58;;;;;;;13.30;10.45;;;-0.10;99.90;;;;;;5092793;28;20205;-58
2023/12/17 05:23:25;;;;;;;16.48;10.75;;;-0.10;99.90;;;;;;5092612;28;20215;-55
2023/12/17 05:25:51;;;;;;;12.63;11.10;;;-0.10;99.90;;;;;;5092495;28;20225;-57
2023/12/17 05:28:18;;;;;;;19.17;11.98;;;-0.10;99.90;;;;;;5092774;28;20205;-58
2023/12/17 05:30:46;;;;;;;11.00;9.75;;;-0.10;99.90;;;;;;5092245;28;20228;-56
2023/12/17 05:33:14;;;;;;;8.30;7.60;;;-0.10;99.90;;;;;;5092723;28;20209;-55
2023/12/17 05:35:42;;;;;;;8.93;8.07;;;-0.10;99.90;;;;;;5092447;28;20228;-55
2023/12/17 05:38:09;;;;;;;13.95;9.73;;;-0.10;99.90;;;;;;5092008;28;20220;-56
2023/12/17 05:40:35;;;;;;;13.07;10.45;;;-0.20;99.90;;;;;;5092123;28;20243;-56
2023/12/17 05:43:03;;;;;;;13.80;10.88;;;-0.20;99.90;;;;;;5092120;28;20292;-57
2023/12/17 05:45:32;;;;;;;18.20;11.32;;;-0.20;99.90;;;;;;5092489;28;20664;-57
2023/12/17 05:47:59;;;;;;;12.38;10.48;;;-0.20;99.90;;;;;;5092159;28;20270;-57
2023/12/17 05:50:27;;;;;;;11.45;10.27;;;-0.20;99.90;;;;;;5092328;28;20301;-57
2023/12/17 05:52:54;;;;;;;13.68;11.05;;;-0.20;99.90;;;;;;5092530;28;20208;-58
2023/12/17 05:55:20;;;;;;;16.80;12.07;;;-0.20;99.90;;;;;;5092233;28;20225;-57
2023/12/17 05:57:50;;;;;;;15.93;11.50;;;-0.30;99.90;;;;;;5091994;28;20225;-56
2023/12/17 06:00:17;;;;;;;11.65;9.90;;;-0.30;99.90;;;;;;5092227;28;20229;-56
2023/12/17 06:02:44;;;;;;;10.13;9.13;;;-0.20;99.90;;;;;;5092303;28;20244;-56
2023/12/17 06:05:12;;;;;;;10.18;9.18;;;-0.20;99.90;;;;;;5092062;28;20315;-58
2023/12/17 06:07:40;;;;;;;10.50;9.43;;;-0.30;99.90;;;;;;5092426;28;20207;-59
2023/12/17 06:10:08;;;;;;;12.25;10.88;;;-0.30;99.90;;;;;;5092304;28;20583;-59
2023/12/17 06:12:35;;;;;;;11.55;9.50;;;-0.30;99.90;;;;;;5092317;28;20304;-58
2023/12/17 06:15:02;;;;;;;12.30;10.10;;;-0.30;99.90;;;;;;5091889;28;20600;-55
2023/12/17 06:17:29;;;;;;;13.27;11.52;;;-0.30;99.90;;;;;;5091923;28;20310;-57
2023/12/17 06:19:56;;;;;;;15.32;10.18;;;-0.30;99.90;;;;;;5091678;28;20232;-58
2023/12/17 06:22:24;;;;;;;10.90;9.70;;;-0.30;99.90;;;;;;5092141;28;20209;-56
2023/12/17 06:24:52;;;;;;;10.35;7.47;;;-0.30;99.90;;;;;;5092033;28;20227;-58
2023/12/17 06:27:19;;;;;;;12.13;9.10;;;-0.30;99.90;;;;;;5091918;28;20246;-58
2023/12/17 06:29:48;;;;;;;12.95;9.98;;;-0.40;99.90;;;;;;5091657;28;20209;-57
2023/12/17 06:32:15;;;;;;;15.88;10.90;;;-0.30;99.90;;;;;;5092073;28;20204;-57
2023/12/17 06:34:43;;;;;;;10.82;9.82;;;-0.40;99.90;;;;;;5091686;28;20240;-59
2023/12/17 06:37:10;;;;;;;11.57;10.38;;;-0.40;99.90;;;;;;5091910;28;20730;-57
2023/12/17 06:39:41;;;;;;;13.38;11.68;;;-0.40;99.90;;;;;;5091575;28;20212;-57
2023/12/17 06:42:10;;;;;;;16.15;11.50;;;-0.40;99.90;;;;;;5091869;28;20558;-57
2023/12/17 06:44:37;;;;;;;13.18;11.82;;;-0.40;99.90;;;;;;5091619;28;20317;-56
2023/12/17 06:47:04;;;;;;;11.65;10.50;;;-0.40;99.90;;;;;;5091453;28;20232;-56
2023/12/17 06:49:31;;;;;;;15.13;11.20;;;-0.40;99.90;;;;;;5091768;28;20380;-59
2023/12/17 06:51:59;;;;;;;12.15;10.88;;;-0.40;99.90;;;;;;5091697;28;20205;-59
2023/12/17 06:54:26;;;;;;;12.23;10.77;;;-0.40;99.90;;;;;;5095392;28;20282;-58
2023/12/17 06:56:52;;;;;;;18.77;10.13;;;-0.40;99.90;;;;;;5095267;28;20217;-55
2023/12/17 06:59:21;;;;;;;10.80;9.10;;;-0.40;99.90;;;;;;5095386;28;20616;-56
2023/12/17 07:01:47;;;;;;;14.27;9.65;;;-0.40;99.90;;;;;;5095378;28;20215;-57
2023/12/17 07:04:14;;;;;;;14.07;11.60;;;-0.40;99.90;;;;;;5095507;28;20228;-57
2023/12/17 07:06:41;;;;;;;14.45;11.25;;;-0.40;99.90;;;;;;5095291;28;20291;-57
2023/12/17 07:09:08;;;;;;;16.10;11.27;;;-0.40;99.90;;;;;;5094932;28;20291;-60
2023/12/17 07:11:35;;;;;;;13.55;10.40;;;-0.40;99.90;;;;;;5095092;28;20205;-59
2023/12/17 07:14:02;;;;;;;16.85;13.07;;;-0.40;99.90;;;;;;5094851;28;20204;-59
2023/12/17 07:16:30;;;;;;;11.02;9.65;;;-0.40;99.90;;;;;;5094904;28;20295;-56
2023/12/17 07:18:57;;;;;;;16.10;10.63;;;-0.50;99.90;;;;;;5094505;28;20671;-56
2023/12/17 07:21:24;;;;;;;14.73;10.90;;;-0.40;99.90;;;;;;5094603;28;20229;-57
2023/12/17 07:23:51;;;;;;;13.02;11.63;;;-0.40;99.90;;;;;;5094958;28;20205;-58
2023/12/17 07:26:17;;;;;;;18.02;11.05;;;-0.40;99.90;;;;;;5094541;28;20205;-56
2023/12/17 07:28:44;;;;;;;17.45;12.27;;;-0.40;99.90;;;;;;5094536;28;20205;-57
2023/12/17 07:31:11;;;;;;;12.23;10.95;;;-0.40;99.90;;;;;;5094585;28;20236;-58
2023/12/17 07:33:39;;;;;;;14.63;11.25;;;-0.40;99.90;;;;;;5094588;28;20212;-58
2023/12/17 07:36:07;;;;;;;11.85;10.65;;;-0.40;99.90;;;;;;5094025;28;20621;-59
2023/12/17 07:38:34;;;;;;;16.83;12.73;;;-0.40;99.90;;;;;;5093796;28;20257;-59
2023/12/17 07:41:01;;;;;;;19.67;10.93;;;-0.40;99.90;;;;;;5094131;28;20312;-60
2023/12/17 07:43:28;;;;;;;13.50;11.93;;;-0.40;99.90;;;;;;5094357;28;20209;-60
2023/12/17 07:45:56;;;;;;;17.23;11.43;;;-0.40;99.90;;;;;;5094066;28;20225;-59
2023/12/17 07:48:22;;;;;;;16.08;11.88;;;-0.40;99.90;;;;;;5093205;28;20197;-60
2023/12/17 07:50:51;;;;;;;15.40;11.73;;;-0.40;99.90;;;;;;5093229;28;20296;-58
2023/12/17 07:53:18;;;;;;;15.48;11.30;;;-0.30;99.90;;;;;;5092930;28;20256;-57
2023/12/17 07:55:45;;;;;;;14.35;11.82;;;-0.30;99.90;;;;;;5093697;28;20233;-58
2023/12/17 07:58:12;;;;;;;13.35;11.95;;;-0.30;99.90;;;;;;5093620;28;20221;-57
2023/12/17 08:00:39;;;;;;;17.38;12.13;;;-0.30;99.90;;;;;;5084422;28;20664;-58
2023/12/17 08:03:06;;;;;;;15.07;11.93;;;-0.30;99.90;;;;;;5082683;28;20203;-59
2023/12/17 08:05:33;;;;;;;13.85;11.27;;;-0.30;99.90;;;;;;5082141;28;20249;-58
2023/12/17 08:08:02;;;;;;;17.58;12.85;;;-0.30;99.90;;;;;;5083935;28;20211;-58
2023/12/17 08:10:28;;;;;;;13.35;12.02;;;-0.30;99.90;;;;;;5081141;28;20223;-57
2023/12/17 08:12:55;;;;;;;17.80;13.57;;;-0.20;99.90;;;;;;5089711;28;20590;-59
2023/12/17 08:15:22;;;;;;;16.85;11.65;;;-0.20;99.90;;;;;;5093412;28;20221;-59
2023/12/17 08:17:49;;;;;;;11.30;10.18;;;-0.20;99.90;;;;;;5092619;28;20252;-59
2023/12/17 08:20:17;;;;;;;20.85;13.15;;;-0.10;99.90;;;;;;5093545;28;20193;-56
2023/12/17 08:22:44;;;;;;;13.70;12.15;;;-0.10;99.90;;;;;;5093226;28;20201;-56
2023/12/17 08:25:12;;;;;;;16.65;12.70;;;0.00;99.90;;;;;;5093446;28;20256;-56
2023/12/17 08:27:39;;;;;;;16.73;12.23;;;-0.10;99.90;;;;;;5093531;28;20201;-59
2023/12/17 08:30:07;;;;;;;15.48;12.85;;;0.00;99.90;;;;;;5093122;28;20296;-60
2023/12/17 08:32:34;;;;;;;14.60;11.93;;;0.00;99.90;;;;;;5093191;28;20292;-59
2023/12/17 08:35:01;;;;;;;14.95;11.00;;;0.10;99.90;;;;;;5092989;28;20236;-59
2023/12/17 08:37:29;;;;;;;19.42;12.02;;;0.10;99.90;;;;;;5093022;28;20225;-57
2023/12/17 08:39:56;;;;;;;13.85;11.93;;;0.10;99.90;;;;;;5092933;28;20401;-56
2023/12/17 08:42:24;;;;;;;18.08;12.70;;;0.20;99.90;;;;;;5093261;28;20208;-59
2023/12/17 08:44:51;;;;;;;14.82;12.00;;;0.20;99.90;;;;;;5093092;28;20320;-56
2023/12/17 08:47:18;;;;;;;18.75;11.90;;;0.20;99.90;;;;;;5092799;28;20296;-58
2023/12/17 08:49:45;;;;;;;15.85;12.02;;;0.30;99.90;;;;;;5092729;28;20215;-56
2023/12/17 08:52:12;;;;;;;16.42;13.10;;;0.30;99.90;;;;;;5093155;28;20574;-60
2023/12/17 08:54:38;;;;;;;14.52;13.15;;;0.30;99.90;;;;;;5092798;28;20232;-57
2023/12/17 08:57:06;;;;;;;18.17;12.88;;;0.40;99.90;;;;;;5092680;28;20209;-59
2023/12/17 08:59:34;;;;;;;14.85;13.35;;;0.40;99.90;;;;;;5092764;28;20736;-58
2023/12/17 09:02:01;;;;;;;17.08;14.27;;;0.40;99.90;;;;;;5092822;28;20207;-58
2023/12/17 09:04:28;;;;;;;17.08;12.15;;;0.50;99.90;;;;;;5092426;28;20599;-57
2023/12/17 09:06:55;;;;;;;14.55;11.98;;;0.50;99.90;;;;;;5092421;28;20208;-57
2023/12/17 09:09:22;;;;;;;17.17;11.90;;;0.60;99.90;;;;;;5092463;28;20283;-54
2023/12/17 09:11:47;;;;;;;13.75;12.20;;;0.60;99.90;;;;;;5092507;28;20212;-57
2023/12/17 09:14:14;;;;;;;11.67;10.57;;;0.60;99.90;;;;;;5092443;28;20308;-56
2023/12/17 09:16:42;;;;;;;17.25;11.85;;;0.60;99.90;;;;;;5092455;28;20201;-59
2023/12/17 09:19:09;;;;;;;13.15;11.38;;;0.70;99.90;;;;;;5092416;28;20229;-57
2023/12/17 09:21:36;;;;;;;18.13;12.63;;;0.70;99.90;;;;;;5092316;28;20209;-59
2023/12/17 09:24:04;;;;;;;14.80;11.98;;;0.80;99.90;;;;;;5092316;28;20591;-60
2023/12/17 09:26:31;;;;;;;15.38;12.10;;;0.80;99.90;;;;;;5083215;28;20202;-58
2023/12/17 09:28:58;;;;;;;15.25;11.75;;;0.80;99.90;;;;;;5080568;28;20193;-57
2023/12/17 09:31:25;;;;;;;13.88;12.07;;;0.80;99.90;;;;;;5079688;28;20202;-59
2023/12/17 09:33:54;;;;;;;20.73;12.88;;;0.90;99.90;;;;;;5081127;28;20274;-57
2023/12/17 09:36:23;;;;;;;16.33;14.40;;;0.90;99.90;;;;;;5081983;28;20201;-56
2023/12/17 09:38:49;;;;;;;12.95;11.65;;;1.00;99.90;;;;;;5079859;28;20216;-60
2023/12/17 09:41:16;;;;;;;15.25;11.43;;;1.00;99.90;;;;;;5081471;28;20201;-59
2023/12/17 09:43:43;;;;;;;12.73;11.43;;;1.00;99.90;;;;;;5079100;28;20287;-57
2023/12/17 09:46:10;;;;;;;19.83;12.07;;;1.10;99.90;;;;;;5086544;28;20209;-58
2023/12/17 09:48:37;;;;;;;12.40;10.05;;;1.10;99.90;;;;;;5091590;28;20211;-60
2023/12/17 09:51:06;;;;;;;15.43;11.95;;;1.20;99.90;;;;;;5091757;28;20699;-55
2023/12/17 09:53:34;;;;;;;19.48;13.07;;;1.20;99.90;;;;;;5091527;28;20207;-60
2023/12/17 09:56:01;;;;;;;16.13;12.27;;;1.30;99.90;;;;;;5091935;28;20224;-57
2023/12/17 09:58:28;;;;;;;14.55;12.23;;;1.30;99.90;;;;;;5091354;28;20227;-58
2023/12/17 10:00:55;;;;;;;14.27;12.88;;;1.40;99.90;;;;;;5092291;28;20204;-59
2023/12/17 10:03:22;;;;;;;16.77;13.50;;;1.40;99.90;;;;;;5092208;28;20239;-58
2023/12/17 10:05:53;;;;;;;17.65;13.55;;;1.40;99.90;;;;;;5092200;28;20308;-57
2023/12/17 10:08:23;;;;;;;16.15;14.02;;;1.50;99.90;;;;;;5091917;28;20198;-59
2023/12/17 10:10:50;;;;;;;16.17;14.48;;;1.60;99.90;;;;;;5092339;28;20292;-59
2023/12/17 10:13:19;;;;;;;20.75;14.75;;;1.60;99.90;;;;;;5091813;28;20208;-57
2023/12/17 10:15:49;;;;;;;17.35;14.82;;;1.60;99.90;;;;;;5092008;28;20260;-57
2023/12/17 10:18:17;;;;;;;21.75;14.38;;;1.70;99.90;;;;;;5091804;28;20683;-59
2023/12/17 10:20:45;;;;;;;16.65;14.88;;;1.70;99.90;;;;;;5092095;28;20209;-59
2023/12/17 10:23:12;;;;;;;19.83;14.38;;;1.80;99.90;;;;;;5091702;28;20209;-59
2023/12/17 10:25:40;;;;;;;17.17;14.35;;;1.90;99.90;;;;;;5091259;28;20220;-58
2023/12/17 10:28:10;;;;;;;20.08;16.45;;;1.90;99.90;;;;;;5093016;28;20721;-59
2023/12/17 10:30:37;;;;;;;21.50;16.45;;;2.00;99.90;;;;;;5095444;28;20305;-58
2023/12/17 10:33:10;;;;;;;21.23;16.05;;;2.10;99.90;;;;;;5095644;28;20575;-60
2023/12/17 10:35:37;;;;;;;20.88;15.95;;;2.10;99.90;;;;;;5094077;22;20226;-61
2023/12/17 10:38:06;;;;;;;19.40;17.50;;;2.20;99.90;;;;;;5054167;28;20309;-60
2023/12/17 10:40:33;;;;;;;19.90;15.75;;;2.30;99.90;;;;;;5054642;28;20229;-61
2023/12/17 10:43:05;;;;;;;22.15;15.90;;;2.40;99.90;;;;;;5054941;28;20210;-60
2023/12/17 10:45:32;;;;;;;17.75;15.90;;;2.50;99.90;;;;;;5054695;28;20592;-60
2023/12/17 10:48:00;;;;;;;17.75;15.95;;;2.60;99.90;;;;;;5054465;28;20294;-60
2023/12/17 10:50:27;;;;;;;16.88;15.35;;;2.70;99.90;;;;;;5054520;28;20229;-60
2023/12/17 10:52:55;;;;;;;17.75;15.95;;;2.90;99.90;;;;;;5054481;28;20222;-60
2023/12/17 10:55:22;;;;;;;18.45;16.55;;;3.00;99.90;;;;;;5054303;28;20321;-59
2023/12/17 10:57:51;;;;;;;17.33;14.60;;;3.10;99.90;;;;;;5054188;28;20222;-59
2023/12/17 11:00:24;;;;;;;18.63;16.35;;;3.10;99.90;;;;;;5054371;28;20290;-61
2023/12/17 11:02:53;;;;;;;18.15;16.35;;;3.20;99.90;;;;;;5049042;28;20225;-60
2023/12/17 11:05:20;;;;;;;17.55;14.18;;;3.30;99.90;;;;;;5049306;28;20225;-61
2023/12/17 11:07:47;;;;;;;17.05;14.77;;;3.30;99.90;;;;;;5053273;28;20297;-59
2023/12/17 11:10:15;;;;;;;16.83;15.13;;;3.30;99.90;;;;;;5053689;28;20297;-58
2023/12/17 11:12:42;;;;;;;16.45;14.75;;;3.40;99.90;;;;;;5039105;28;20218;-61
2023/12/17 11:15:10;;;;;;;18.77;14.85;;;3.40;99.90;;;;;;5042826;28;20222;-61
2023/12/17 11:17:39;;;;;;;17.13;14.63;;;3.40;99.90;;;;;;5037237;28;20594;-60
2023/12/17 11:20:07;;;;;;;15.05;12.93;;;3.50;99.90;;;;;;5046658;28;20199;-60
2023/12/17 11:22:36;;;;;;;17.60;13.57;;;3.50;99.90;;;;;;5049250;28;20206;-59
2023/12/17 11:25:03;;;;;;;16.70;15.05;;;3.50;99.90;;;;;;5032918;28;20227;-60
2023/12/17 11:27:31;;;;;;;19.13;13.43;;;3.50;99.90;;;;;;5031629;28;20213;-60
2023/12/17 11:29:58;;;;;;;16.23;14.63;;;3.60;99.90;;;;;;5045441;28;20199;-59
2023/12/17 11:32:26;;;;;;;18.40;14.90;;;3.60;99.90;;;;;;5042724;28;20203;-58
2023/12/17 11:34:56;;;;;;;15.52;13.93;;;3.60;99.90;;;;;;5019365;28;20239;-61
2023/12/17 11:37:29;;;;;;;15.88;13.38;;;3.70;99.90;;;;;;5037257;28;20242;-58
2023/12/17 11:39:55;;;;;;;15.20;12.60;;;3.70;99.90;;;;;;5038438;28;20280;-60
2023/12/17 11:42:22;;;;;;;15.20;13.75;;;3.70;99.90;;;;;;5043357;28;20293;-60
2023/12/17 11:44:51;;;;;;;14.75;13.45;;;3.70;99.90;;;;;;5047539;28;20348;-58
2023/12/17 11:47:24;;;;;;;15.35;13.85;;;3.70;99.90;;;;;;5044752;28;20206;-61
2023/12/17 11:49:51;;;;;;;15.38;13.65;;;3.80;99.90;;;;;;5048845;28;20289;-60
2023/12/17 11:52:19;;;;;;;19.33;16.83;;;3.70;99.90;;;;;;5046497;28;20229;-58
2023/12/17 11:54:47;;;;;;;18.48;14.65;;;3.80;99.90;;;;;;5048695;28;20227;-60
2023/12/17 11:57:21;;;;;;;18.27;15.27;;;3.80;99.90;;;;;;5046552;28;20206;-59
2023/12/17 11:59:48;;;;;;;15.93;14.25;;;3.90;99.90;;;;;;5041171;28;20309;-62
2023/12/17 12:02:16;;;;;;;15.63;13.75;;;4.00;99.90;;;;;;5048109;28;20210;-60
2023/12/17 12:04:44;;;;;;;18.38;14.70;;;4.10;99.90;;;;;;5043509;28;20235;-61
2023/12/17 12:07:12;;;;;;;18.40;14.05;;;4.20;99.90;;;;;;5048582;28;20733;-59
2023/12/17 12:09:40;;;;;;;15.00;13.52;;;4.40;99.90;;;;;;5034013;28;20203;-60
2023/12/17 12:12:17;;;;;;;13.82;12.52;;;4.50;99.90;;;;;;5036860;28;20581;-60
2023/12/17 12:14:46;;;;;;;13.43;12.07;;;4.70;99.90;;;;;;5047476;28;20229;-61
2023/12/17 12:17:37;;;;;;;16.15;13.52;;;5.00;99.90;;;;;;5034842;28;20199;-61
2023/12/17 12:20:05;;;;;;;13.95;12.55;;;5.30;99.90;;;;;;5025841;28;20235;-61
2023/12/17 12:22:32;;;;;;;15.55;14.05;;;5.60;99.90;;;;;;5037588;28;20213;-61
2023/12/17 12:25:00;;;;;;;12.70;11.32;;;5.90;99.90;;;;;;5048987;28;20229;-61
2023/12/17 12:27:27;;;;;;;13.95;12.55;;;6.10;99.90;;;;;;5043743;28;20207;-61
2023/12/17 12:29:54;;;;;;;12.63;11.43;;;6.40;99.90;;;;;;5024799;28;20203;-61
2023/12/17 12:32:28;;;;;;;11.45;10.43;;;6.80;99.90;;;;;;5036764;28;20207;-60
2023/12/17 12:34:55;;;;;;;15.97;11.97;;;7.20;99.90;;;;;;5035434;28;20234;-61
2023/12/17 12:37:32;;;;;;;11.43;10.13;;;7.60;99.90;;;;;;5030689;28;20446;-60
2023/12/17 12:40:01;;;;;;;9.70;8.80;;;8.20;99.90;;;;;;5026435;28;20249;-59